Time;durP1;ratioP1;P1;durP2;ratioP2;P2;SDS_P1;SDS_P2;PMS_P1;PMS_P2;Temp;Humidity;BMP_temperature;BMP_pressure;BME280_temperature;BME280_humidity;BME280_pressure;Samples;Min_cycle;Max_cycle;Signal;HPM_P1;HPM_P2
2023/07/02 00:00:08;;;;;;;13.57;6.53;;;;;;;16.98;88.39;100668.13;4997649;28;20484;-48
2023/07/02 00:02:34;;;;;;;16.17;6.80;;;;;;;16.97;88.38;100672.66;5003782;28;20041;-48
2023/07/02 00:04:59;;;;;;;12.18;6.55;;;;;;;16.97;88.81;100666.44;5003225;28;20038;-48
2023/07/02 00:07:25;;;;;;;14.55;7.60;;;;;;;16.95;88.75;100665.75;5002605;28;20026;-48
2023/07/02 00:09:51;;;;;;;13.05;6.40;;;;;;;16.90;89.06;100655.50;4996064;28;20423;-48
2023/07/02 00:12:17;;;;;;;15.95;7.70;;;;;;;16.91;88.71;100667.09;5000001;28;20038;-48
2023/07/02 00:14:42;;;;;;;17.52;7.28;;;;;;;16.89;89.14;100659.22;4995648;28;20034;-48
2023/07/02 00:17:07;;;;;;;15.18;7.80;;;;;;;16.87;88.54;100657.69;5001641;28;20081;-51
2023/07/02 00:19:33;;;;;;;16.88;7.93;;;;;;;16.85;88.64;100668.59;4996569;28;20448;-48
2023/07/02 00:21:58;;;;;;;18.13;7.88;;;;;;;16.83;88.11;100662.50;5006647;28;20041;-48
2023/07/02 00:24:24;;;;;;;16.38;8.15;;;;;;;16.83;88.21;100662.50;5002357;28;20134;-50
2023/07/02 00:26:49;;;;;;;21.13;9.00;;;;;;;16.80;88.48;100666.38;5000627;28;20437;-48
2023/07/02 00:29:15;;;;;;;18.10;8.50;;;;;;;16.76;88.20;100659.66;5003993;28;20641;-48
2023/07/02 00:31:40;;;;;;;19.38;8.93;;;;;;;16.76;88.83;100654.28;5002688;28;20053;-49
2023/07/02 00:34:05;;;;;;;18.65;9.38;;;;;;;16.73;89.16;100653.78;5003566;28;20133;-50
2023/07/02 00:36:31;;;;;;;20.58;9.73;;;;;;;16.72;89.21;100655.63;5003066;28;20049;-48
2023/07/02 00:38:58;;;;;;;18.92;10.05;;;;;;;16.70;88.60;100649.56;5003022;28;20023;-49
2023/07/02 00:41:23;;;;;;;19.98;9.90;;;;;;;16.69;88.95;100653.25;5001921;28;20419;-49
2023/07/02 00:43:49;;;;;;;18.48;9.15;;;;;;;16.70;88.85;100654.09;5001574;28;20042;-48
2023/07/02 00:46:17;;;;;;;17.92;9.27;;;;;;;16.66;88.66;100645.53;5002947;28;20017;-47
2023/07/02 00:48:45;;;;;;;19.65;9.93;;;;;;;16.65;89.20;100652.75;5002659;28;20064;-48
2023/07/02 00:51:14;;;;;;;20.02;10.18;;;;;;;16.61;88.48;100661.28;5002919;28;20018;-48
2023/07/02 00:53:39;;;;;;;;;;;;;;;16.73;87.70;100667.19;5006188;28;20033;-48
2023/07/02 00:56:05;;;;;;;21.20;10.93;;;;;;;16.61;87.91;100670.16;5001055;28;19910;-48
2023/07/02 00:58:30;;;;;;;20.27;10.73;;;;;;;16.60;88.41;100679.22;4999127;28;20029;-49
2023/07/02 01:00:56;;;;;;;23.90;11.80;;;;;;;16.56;88.49;100667.09;5006179;28;20105;-48
2023/07/02 01:03:22;;;;;;;23.92;11.43;;;;;;;16.54;88.04;100670.97;5004635;28;20033;-48
2023/07/02 01:05:47;;;;;;;22.33;12.55;;;;;;;16.52;88.70;100678.31;5004963;28;20030;-48
2023/07/02 01:08:13;;;;;;;23.67;11.90;;;;;;;16.49;87.93;100679.50;5000830;28;20531;-48
2023/07/02 01:10:38;;;;;;;24.83;12.93;;;;;;;16.44;87.55;100677.28;4998666;28;20264;-48
2023/07/02 01:13:11;;;;;;;25.20;12.52;;;;;;;16.38;88.61;100666.34;4998823;28;20050;-48
2023/07/02 01:15:37;;;;;;;23.05;12.50;;;;;;;16.41;89.20;100674.09;4996047;28;20121;-48
2023/07/02 01:18:04;;;;;;;26.52;13.07;;;;;;;16.37;89.38;100675.38;5002123;28;20064;-48
2023/07/02 01:20:31;;;;;;;22.05;13.05;;;;;;;16.35;89.06;100680.06;5000847;28;20026;-48
2023/07/02 01:22:57;;;;;;;26.60;13.95;;;;;;;16.33;89.18;100682.91;4997672;28;20030;-48
2023/07/02 01:25:24;;;;;;;23.02;13.60;;;;;;;16.29;89.31;100689.59;4999878;28;20511;-48
2023/07/02 01:27:51;;;;;;;26.35;13.52;;;;;;;16.22;89.99;100680.50;4999679;28;20475;-49
2023/07/02 01:30:16;;;;;;;24.30;13.27;;;;;;;16.22;89.70;100689.41;4998482;28;20027;-48
2023/07/02 01:32:41;;;;;;;25.00;13.82;;;;;;;16.17;90.02;100689.03;5002772;28;20114;-49
2023/07/02 01:35:08;;;;;;;26.02;14.52;;;;;;;16.19;90.64;100688.88;5001521;28;20050;-48
2023/07/02 01:37:37;;;;;;;27.25;14.98;;;;;;;16.17;90.43;100702.44;5001239;28;20168;-48
2023/07/02 01:40:05;;;;;;;31.65;16.27;;;;;;;16.14;91.23;100696.53;4996792;28;20053;-49
2023/07/02 01:42:31;;;;;;;23.02;14.43;;;;;;;16.14;90.68;100696.53;5001734;28;20041;-48
2023/07/02 01:44:56;;;;;;;28.65;15.68;;;;;;;16.12;90.91;100702.06;4999703;28;20026;-48
2023/07/02 01:47:22;;;;;;;30.92;16.02;;;;;;;16.11;90.79;100703.06;5004710;28;20065;-49
2023/07/02 01:49:47;;;;;;;28.63;14.60;;;;;;;16.08;90.95;100696.16;4998513;28;20042;-48
2023/07/02 01:52:12;;;;;;;24.20;15.27;;;;;;;16.09;91.12;100699.69;4999564;28;20070;-49
2023/07/02 01:54:38;;;;;;;29.77;15.48;;;;;;;16.08;91.62;100704.19;5002032;28;20399;-48
2023/07/02 01:57:04;;;;;;;27.42;15.35;;;;;;;16.09;91.47;100699.69;5002863;28;20096;-48
2023/07/02 01:59:29;;;;;;;29.27;15.80;;;;;;;16.06;91.31;100700.84;5000557;28;20037;-48
2023/07/02 02:01:55;;;;;;;32.65;15.75;;;;;;;16.06;91.60;100702.69;5000478;28;20026;-48
2023/07/02 02:04:20;;;;;;;32.85;15.73;;;;;;;16.04;91.63;100704.69;4998362;28;20117;-48
2023/07/02 02:06:45;;;;;;;29.52;16.23;;;;;;;16.01;91.45;100702.31;5004723;28;20026;-48
2023/07/02 02:09:11;;;;;;;30.10;16.65;;;;;;;16.03;91.93;100705.66;5001318;28;20606;-48
2023/07/02 02:11:43;;;;;;;31.77;16.23;;;;;;;15.99;91.83;100702.47;4997522;28;20098;-48
2023/07/02 02:14:08;;;;;;;30.20;16.45;;;;;;;15.99;92.81;100705.16;5003439;28;20030;-48
2023/07/02 02:16:33;;;;;;;29.20;15.60;;;;;;;15.95;93.15;100703.75;5003092;28;20026;-48
2023/07/02 02:19:00;;;;;;;30.17;17.45;;;;;;;15.95;91.96;100706.44;5000207;28;20030;-50
2023/07/02 02:21:26;;;;;;;28.15;15.43;;;;;;;15.94;93.05;100704.78;5003092;28;20069;-48
2023/07/02 02:23:51;;;;;;;29.15;17.23;;;;;;;15.94;92.60;100711.94;5000038;28;20535;-48
2023/07/02 02:26:16;;;;;;;33.47;17.27;;;;;;;15.91;93.53;100699.72;5001509;28;20101;-48
2023/07/02 02:28:42;;;;;;;28.98;17.00;;;;;;;15.89;92.92;100707.09;5001635;28;20040;-48
2023/07/02 02:31:08;;;;;;;31.67;16.40;;;;;;;15.86;93.65;100705.53;4999279;28;20056;-48
2023/07/02 02:33:35;;;;;;;30.15;16.83;;;;;;;15.86;93.04;100720.78;4999595;28;20042;-47
2023/07/02 02:36:00;;;;;;;28.45;16.40;;;;;;;15.82;93.06;100714.03;5002698;28;20080;-47
2023/07/02 02:38:25;;;;;;;29.65;16.88;;;;;;;15.79;93.51;100709.03;5004325;28;20030;-48
2023/07/02 02:40:51;;;;;;;29.58;16.73;;;;;;;15.74;93.77;100714.81;4997251;28;20061;-48
2023/07/02 02:43:20;;;;;;;30.30;16.88;;;;;;;15.72;93.65;100716.75;4996942;28;20120;-48
2023/07/02 02:45:46;;;;;;;30.88;17.30;;;;;;;15.69;93.55;100717.94;4995191;28;20053;-48
2023/07/02 02:48:11;;;;;;;27.48;16.33;;;;;;;15.68;93.42;100724.28;5001173;28;20503;-48
2023/07/02 02:50:41;;;;;;;28.83;17.27;;;;;;;15.65;94.31;100723.75;5003736;28;20057;-48
2023/07/02 02:53:07;;;;;;;30.70;17.10;;;;;;;15.62;94.01;100724.03;4995752;28;20105;-48
2023/07/02 02:55:32;;;;;;;29.92;17.17;;;;;;;15.53;94.31;100725.81;5000067;28;20018;-48
2023/07/02 02:57:57;;;;;;;28.20;16.73;;;;;;;15.57;95.10;100732.56;4998057;28;20033;-48
2023/07/02 03:00:22;;;;;;;28.45;17.73;;;;;;;15.54;94.66;100735.53;4997242;28;20282;-48
2023/07/02 03:02:48;;;;;;;31.88;17.77;;;;;;;15.47;94.59;100747.81;4996754;28;20025;-48
2023/07/02 03:05:16;;;;;;;28.77;17.83;;;;;;;15.46;94.95;100752.34;5000978;28;20077;-48
2023/07/02 03:07:41;;;;;;;31.35;17.27;;;;;;;15.45;95.14;100747.16;5000774;28;20054;-48
2023/07/02 03:10:07;;;;;;;35.50;18.38;;;;;;;15.37;95.57;100739.88;5002754;28;20061;-48
2023/07/02 03:12:32;;;;;;;29.05;17.58;;;;;;;15.34;95.53;100743.69;5003645;28;20022;-48
2023/07/02 03:14:57;;;;;;;31.17;17.08;;;;;;;15.33;95.20;100758.06;4997309;28;20038;-48
2023/07/02 03:17:23;;;;;;;36.30;18.40;;;;;;;15.29;95.33;100756.69;5002711;28;20050;-48
2023/07/02 03:19:49;;;;;;;36.05;18.77;;;;;;;15.26;95.51;100759.66;5000114;28;20491;-48
2023/07/02 03:22:14;;;;;;;32.25;17.80;;;;;;;15.21;95.33;100755.78;5000493;28;20395;-48
2023/07/02 03:24:39;;;;;;;28.42;17.13;;;;;;;15.21;95.86;100755.78;4996883;28;20072;-48
2023/07/02 03:27:05;;;;;;;31.23;17.02;;;;;;;15.19;95.92;100755.91;4999627;28;20030;-48
2023/07/02 03:29:32;;;;;;;31.83;17.58;;;;;;;15.14;95.86;100768.91;5003556;28;20021;-48
2023/07/02 03:31:57;;;;;;;28.65;16.13;;;;;;;15.11;94.89;100766.53;5002662;28;20034;-49
2023/07/02 03:34:23;;;;;;;32.45;16.58;;;;;;;15.10;94.06;100771.00;4996221;28;20065;-48
2023/07/02 03:36:49;;;;;;;29.58;16.50;;;;;;;15.08;94.50;100774.84;5004154;28;20469;-48
2023/07/02 03:39:14;;;;;;;32.05;16.92;;;;;;;15.06;94.50;100771.47;4999701;28;20042;-48
2023/07/02 03:41:40;;;;;;;27.75;15.48;;;;;;;15.05;93.38;100775.97;5000071;28;20040;-48
2023/07/02 03:44:06;;;;;;;27.83;15.20;;;;;;;15.05;92.82;100780.47;5000961;28;20073;-49
2023/07/02 03:46:31;;;;;;;27.90;14.80;;;;;;;15.03;93.35;100785.97;4998212;28;20037;-48
2023/07/02 03:48:57;;;;;;;28.20;14.57;;;;;;;14.99;92.70;100774.72;4998400;28;20028;-48
2023/07/02 03:51:22;;;;;;;32.03;14.95;;;;;;;14.99;91.18;100777.41;4998987;28;20049;-48
2023/07/02 03:53:48;;;;;;;28.58;14.35;;;;;;;14.95;91.36;100778.72;5006315;28;20391;-50
2023/07/02 03:56:13;;;;;;;28.52;13.88;;;;;;;14.94;90.31;100778.84;5008480;28;20034;-48
2023/07/02 03:58:40;;;;;;;26.77;13.85;;;;;;;14.95;90.52;100791.22;5007356;28;20030;-48
2023/07/02 04:01:05;;;;;;;27.25;13.75;;;;;;;14.93;90.58;100788.69;5002552;28;20041;-48
2023/07/02 04:03:30;;;;;;;25.90;14.63;;;;;;;14.95;90.91;100791.22;5006734;28;20051;-48
2023/07/02 04:05:56;;;;;;;27.77;14.73;;;;;;;14.88;90.63;100785.63;5003583;28;20015;-49
2023/07/02 04:08:22;;;;;;;27.13;13.35;;;;;;;14.93;90.89;100793.19;5003328;28;20390;-49
2023/07/02 04:10:47;;;;;;;24.55;12.60;;;;;;;14.92;90.05;100792.38;5006166;28;20030;-51
2023/07/02 04:13:13;;;;;;;26.95;13.63;;;;;;;14.91;90.32;100804.03;5006440;28;20499;-48
2023/07/02 04:15:38;;;;;;;28.42;13.23;;;;;;;14.91;89.80;100795.19;5002406;28;20109;-50
2023/07/02 04:18:03;;;;;;;23.83;13.32;;;;;;;14.90;89.29;100796.16;5005961;28;20033;-50
2023/07/02 04:20:29;;;;;;;23.90;13.65;;;;;;;14.88;89.95;100798.97;5003058;28;20109;-49
2023/07/02 04:22:55;;;;;;;31.58;13.95;;;;;;;14.87;89.85;100801.81;5005561;28;20072;-48
2023/07/02 04:25:21;;;;;;;24.80;13.43;;;;;;;14.88;90.16;100803.50;5006347;28;20057;-48
2023/07/02 04:27:46;;;;;;;29.40;13.65;;;;;;;14.85;90.35;100799.28;5005307;28;20030;-49
2023/07/02 04:30:13;;;;;;;25.58;13.98;;;;;;;14.88;90.73;100804.34;5006078;28;20105;-48
2023/07/02 04:32:41;;;;;;;26.63;14.15;;;;;;;14.90;90.59;100806.88;5006386;28;20030;-48
2023/07/02 04:35:08;;;;;;;26.42;13.88;;;;;;;14.91;89.98;100800.53;5002669;28;20050;-49
2023/07/02 04:37:34;;;;;;;27.38;13.30;;;;;;;14.93;89.04;100811.91;5006193;28;20061;-49
2023/07/02 04:39:59;;;;;;;26.05;13.85;;;;;;;14.94;89.89;100809.09;5002699;28;20030;-48
2023/07/02 04:42:27;;;;;;;26.48;12.88;;;;;;;14.97;89.48;100802.59;5006908;28;20040;-49
2023/07/02 04:44:54;;;;;;;25.83;13.65;;;;;;;15.02;89.58;100813.72;5002395;28;20040;-48
2023/07/02 04:47:19;;;;;;;27.13;13.65;;;;;;;15.06;89.62;100814.28;5006182;28;20057;-48
2023/07/02 04:49:44;;;;;;;24.25;13.73;;;;;;;15.09;88.65;100816.66;5002191;28;20026;-48
2023/07/02 04:52:10;;;;;;;25.15;13.68;;;;;;;15.11;88.00;100809.31;5003862;28;20027;-48
2023/07/02 04:54:35;;;;;;;27.67;13.50;;;;;;;15.13;89.16;100818.03;5008162;28;20057;-49
2023/07/02 04:57:00;;;;;;;26.35;13.15;;;;;;;15.17;88.27;100816.72;5006352;28;20101;-48
2023/07/02 04:59:26;;;;;;;25.67;13.45;;;;;;;15.21;87.81;100831.50;5004971;28;20092;-48
2023/07/02 05:01:51;;;;;;;26.55;13.30;;;;;;;15.25;88.29;100827.53;5006336;28;20030;-49
2023/07/02 05:04:16;;;;;;;23.83;12.52;;;;;;;15.30;86.37;100832.44;5001225;28;20018;-49
2023/07/02 05:06:41;;;;;;;26.73;13.65;;;;;;;15.32;87.16;100836.69;5001223;28;20033;-48
2023/07/02 05:09:07;;;;;;;27.67;13.52;;;;;;;15.37;85.13;100833.56;4999045;28;20122;-48
2023/07/02 05:11:32;;;;;;;24.13;12.10;;;;;;;15.42;84.45;100835.75;5003276;28;20072;-47
2023/07/02 05:13:57;;;;;;;26.60;12.90;;;;;;;15.49;85.27;100834.19;5000506;28;20027;-47
2023/07/02 05:16:23;;;;;;;24.70;11.35;;;;;;;15.49;83.53;100842.22;5002162;28;20037;-47
2023/07/02 05:18:48;;;;;;;22.08;10.93;;;;;;;15.53;82.64;100840.91;5002564;28;20029;-48
2023/07/02 05:21:17;;;;;;;22.65;10.63;;;;;;;15.58;82.30;100846.66;5003069;28;20033;-48
2023/07/02 05:23:43;;;;;;;20.77;10.13;;;;;;;15.63;79.35;100849.72;5001343;28;20124;-49
2023/07/02 05:26:08;;;;;;;25.92;10.77;;;;;;;15.64;79.33;100853.28;5003468;28;20053;-48
2023/07/02 05:28:33;;;;;;;23.50;9.88;;;;;;;15.67;77.96;100861.84;4998224;28;20391;-48
2023/07/02 05:30:58;;;;;;;21.70;9.23;;;;;;;15.72;76.58;100861.38;5002643;28;20060;-48
2023/07/02 05:33:24;;;;;;;24.75;10.93;;;;;;;15.80;77.59;100855.28;4999045;28;20038;-48
2023/07/02 05:35:49;;;;;;;25.88;9.98;;;;;;;15.84;75.75;100859.38;4999761;28;20468;-48
2023/07/02 05:38:16;;;;;;;25.73;9.60;;;;;;;15.90;76.85;100866.78;4999176;28;20563;-49
2023/07/02 05:40:41;;;;;;;22.70;9.25;;;;;;;15.92;75.98;100859.47;5003461;28;20026;-48
2023/07/02 05:43:06;;;;;;;21.88;10.25;;;;;;;16.03;77.65;100872.59;4991550;28;20542;-48
2023/07/02 05:45:32;;;;;;;20.23;8.65;;;;;;;16.10;74.50;100878.19;4997167;28;20058;-50
2023/07/02 05:47:57;;;;;;;19.88;9.13;;;;;;;16.16;73.78;100877.59;4993429;28;20019;-49
2023/07/02 05:50:23;;;;;;;22.10;8.75;;;;;;;16.23;73.64;100883.19;4999718;28;20408;-49
2023/07/02 05:52:48;;;;;;;19.80;9.32;;;;;;;16.32;74.32;100886.75;5001683;28;20050;-48
2023/07/02 05:55:14;;;;;;;20.38;8.63;;;;;;;16.39;71.80;100885.16;4999518;28;20068;-48
2023/07/02 05:57:39;;;;;;;21.45;8.55;;;;;;;16.44;71.96;100883.69;4994549;28;20457;-48
2023/07/02 06:00:05;;;;;;;20.40;8.40;;;;;;;16.60;73.29;100884.81;4988332;28;20053;-48
2023/07/02 06:02:31;;;;;;;19.02;8.38;;;;;;;16.73;72.93;100892.47;4990316;28;20084;-48
2023/07/02 06:04:57;;;;;;;21.95;9.23;;;;;;;16.81;71.38;100893.34;4995050;28;20475;-49
2023/07/02 06:07:22;;;;;;;20.08;8.43;;;;;;;16.93;72.36;100887.78;5000975;28;20069;-48
2023/07/02 06:09:48;;;;;;;22.65;8.63;;;;;;;16.99;68.90;100895.19;5004417;28;20077;-49
2023/07/02 06:12:13;;;;;;;19.60;8.60;;;;;;;17.09;69.65;100897.78;4998056;28;20039;-48
2023/07/02 06:14:38;;;;;;;22.80;8.75;;;;;;;17.28;69.72;100899.38;5000843;28;20050;-48
2023/07/02 06:17:06;;;;;;;18.58;8.30;;;;;;;17.44;68.54;100896.75;4998396;28;20025;-48
2023/07/02 06:19:32;;;;;;;19.05;8.25;;;;;;;17.58;69.09;100897.97;4999745;28;20045;-50
2023/07/02 06:21:57;;;;;;;16.45;8.27;;;;;;;17.80;68.79;100901.91;4999288;28;20030;-49
2023/07/02 06:24:23;;;;;;;17.48;8.00;;;;;;;17.88;68.11;100901.13;4995393;28;20435;-50
2023/07/02 06:26:48;;;;;;;16.13;8.07;;;;;;;17.92;66.36;100902.50;4994355;28;20395;-48
2023/07/02 06:29:13;;;;;;;18.17;7.95;;;;;;;18.05;66.55;100907.38;5002065;28;20202;-48
2023/07/02 06:31:39;;;;;;;22.40;8.35;;;;;;;18.12;66.46;100908.44;4995052;28;20369;-49
2023/07/02 06:34:04;;;;;;;18.02;7.53;;;;;;;18.19;66.11;100922.03;4993821;28;20054;-48
2023/07/02 06:36:29;;;;;;;16.77;7.45;;;;;;;18.25;67.21;100918.66;4992636;28;20030;-49
2023/07/02 06:38:55;;;;;;;16.00;7.05;;;;;;;18.29;66.39;100920.03;4996799;28;20081;-48
2023/07/02 06:41:20;;;;;;;18.42;7.72;;;;;;;18.31;65.65;100916.16;5000065;28;20545;-48
2023/07/02 06:43:45;;;;;;;17.70;7.18;;;;;;;18.33;64.92;100923.22;4994562;28;20026;-48
2023/07/02 06:46:11;;;;;;;15.65;6.78;;;;;;;18.37;65.30;100921.88;4998997;28;20054;-49
2023/07/02 06:48:36;;;;;;;19.88;7.25;;;;;;;18.40;63.90;100918.84;5008247;28;20030;-52
2023/07/02 06:51:02;;;;;;;15.07;7.05;;;;;;;18.40;64.96;100926.91;4998560;28;20071;-50
2023/07/02 06:53:27;;;;;;;15.00;7.13;;;;;;;18.40;63.48;100926.91;4994302;28;20049;-48
2023/07/02 06:55:52;;;;;;;15.98;7.40;;;;;;;18.42;63.02;100933.00;4994916;28;20491;-51
2023/07/02 06:58:18;;;;;;;17.77;7.55;;;;;;;18.45;63.55;100928.13;4998634;28;20553;-49
2023/07/02 07:00:43;;;;;;;17.65;7.95;;;;;;;18.46;63.50;100937.03;5000266;28;20077;-49
2023/07/02 07:03:08;;;;;;;18.80;7.40;;;;;;;18.53;64.06;100929.94;4995308;28;20467;-49
2023/07/02 07:05:34;;;;;;;20.17;7.32;;;;;;;18.59;64.29;100933.84;4999842;28;20575;-48
2023/07/02 07:08:00;;;;;;;18.63;7.43;;;;;;;18.62;62.77;100938.88;4996828;28;20034;-48
2023/07/02 07:10:26;;;;;;;15.77;7.18;;;;;;;18.65;62.90;100951.97;4997784;28;20134;-50
2023/07/02 07:12:51;;;;;;;16.13;7.32;;;;;;;18.67;61.99;100955.38;4997544;28;20118;-48
2023/07/02 07:15:17;;;;;;;15.98;6.82;;;;;;;18.72;62.44;100958.41;4996699;28;20116;-47
2023/07/02 07:17:42;;;;;;;15.63;7.13;;;;;;;18.83;61.28;100952.69;4997139;28;20030;-48
2023/07/02 07:20:08;;;;;;;16.83;6.50;;;;;;;18.96;60.48;100956.72;4997660;28;20041;-48
2023/07/02 07:22:33;;;;;;;15.73;6.50;;;;;;;19.04;63.02;100959.41;4995921;28;20030;-49
2023/07/02 07:24:58;;;;;;;15.10;6.40;;;;;;;19.10;59.59;100960.56;5000960;28;20034;-48
2023/07/02 07:27:24;;;;;;;15.13;6.90;;;;;;;19.17;62.83;100966.97;5002738;28;20030;-49
2023/07/02 07:29:49;;;;;;;18.30;6.53;;;;;;;19.17;61.58;100966.97;4993402;28;20088;-50
2023/07/02 07:32:14;;;;;;;18.05;6.60;;;;;;;19.22;60.73;100970.81;4998256;28;20045;-48
2023/07/02 07:34:40;;;;;;;19.15;7.35;;;;;;;19.23;61.02;100982.41;5000416;28;20120;-49
2023/07/02 07:37:05;;;;;;;14.90;6.07;;;;;;;19.30;59.69;100988.81;4997272;28;20039;-49
2023/07/02 07:39:31;;;;;;;20.58;6.75;;;;;;;19.32;60.81;100985.97;4998958;28;20500;-48
2023/07/02 07:41:56;;;;;;;17.65;6.28;;;;;;;19.41;59.41;100985.75;4995278;28;20030;-49
2023/07/02 07:44:21;;;;;;;13.95;6.00;;;;;;;19.42;59.68;100992.81;4989144;28;20482;-49
2023/07/02 07:46:47;;;;;;;14.02;6.18;;;;;;;19.43;58.97;100990.97;4987266;28;20017;-48
2023/07/02 07:49:13;;;;;;;14.30;5.87;;;;;;;19.42;58.20;100987.44;4990349;28;20419;-49
2023/07/02 07:51:38;;;;;;;13.93;6.00;;;;;;;19.41;60.31;100969.59;4992110;28;20293;-54
2023/07/02 07:54:04;;;;;;;14.65;5.95;;;;;;;19.59;59.75;100999.00;4997639;28;20424;-53
2023/07/02 07:56:29;;;;;;;14.25;6.47;;;;;;;19.66;59.28;100992.94;4992457;28;20031;-53
2023/07/02 07:58:54;;;;;;;14.55;6.13;;;;;;;19.71;58.81;100991.38;4998301;28;20122;-53
2023/07/02 08:01:20;;;;;;;14.00;6.13;;;;;;;19.72;56.65;100985.00;4993136;28;20149;-55
2023/07/02 08:03:45;;;;;;;13.32;5.60;;;;;;;19.71;55.64;100996.78;4996497;28;20034;-54
2023/07/02 08:06:11;;;;;;;14.85;6.07;;;;;;;19.73;54.52;100997.47;4998891;28;20014;-54
2023/07/02 08:08:36;;;;;;;12.85;5.65;;;;;;;19.74;55.20;100998.28;4993654;28;20059;-54
2023/07/02 08:11:01;;;;;;;16.92;5.90;;;;;;;19.77;54.25;100993.41;5000975;28;20022;-55
2023/07/02 08:13:27;;;;;;;12.02;5.40;;;;;;;19.89;56.47;100993.03;4993280;28;20058;-55
2023/07/02 08:15:52;;;;;;;13.55;5.75;;;;;;;20.00;55.05;100994.50;4991826;28;20027;-52
2023/07/02 08:18:17;;;;;;;14.13;5.80;;;;;;;20.00;54.75;100997.19;4996842;28;20026;-54
2023/07/02 08:20:43;;;;;;;11.52;5.70;;;;;;;20.08;55.07;100999.84;4994682;28;20033;-53
2023/07/02 08:23:08;;;;;;;15.90;6.53;;;;;;;20.12;52.86;101010.13;4997644;28;20023;-53
2023/07/02 08:25:33;;;;;;;12.68;5.60;;;;;;;20.11;54.52;101004.91;5000635;28;20112;-53
2023/07/02 08:27:59;;;;;;;13.18;5.90;;;;;;;20.21;52.40;100997.41;5000890;28;20037;-53
2023/07/02 08:30:24;;;;;;;10.10;5.40;;;;;;;20.24;52.12;101007.03;4991186;28;20116;-52
2023/07/02 08:32:49;;;;;;;16.30;5.53;;;;;;;20.29;53.23;101007.34;5002933;28;20527;-56
2023/07/02 08:35:15;;;;;;;13.27;6.43;;;;;;;20.39;52.83;101012.50;4996112;28;20281;-55
2023/07/02 08:37:40;;;;;;;11.73;5.80;;;;;;;20.38;54.26;101010.81;4992810;28;20034;-54
2023/07/02 08:40:06;;;;;;;13.98;5.80;;;;;;;20.49;53.64;101021.19;5001068;28;20051;-55
2023/07/02 08:42:33;;;;;;;13.10;5.65;;;;;;;20.39;52.30;101013.34;5002402;28;20037;-54
2023/07/02 08:45:00;;;;;;;15.32;5.75;;;;;;;20.53;52.03;101017.13;4997140;28;20026;-53
2023/07/02 08:47:25;;;;;;;11.52;5.50;;;;;;;20.58;49.21;101019.28;5002689;28;20065;-52
2023/07/02 08:49:51;;;;;;;12.05;5.63;;;;;;;20.49;47.53;101029.31;5000082;28;20479;-53
2023/07/02 08:52:16;;;;;;;12.45;5.28;;;;;;;20.47;48.17;101018.69;5000781;28;20092;-54
2023/07/02 08:54:42;;;;;;;12.50;5.55;;;;;;;20.44;48.64;101021.72;5001970;28;20367;-55
2023/07/02 08:57:09;;;;;;;10.38;5.60;;;;;;;20.49;48.31;101022.03;5004527;28;20438;-55
2023/07/02 08:59:35;;;;;;;10.77;5.55;;;;;;;20.54;47.51;101016.09;5002598;28;20062;-55
2023/07/02 09:02:01;;;;;;;11.98;5.15;;;;;;;20.76;49.88;101016.31;4993112;28;20026;-55
2023/07/02 09:04:26;;;;;;;10.70;5.82;;;;;;;20.78;47.45;101023.19;4998044;28;20057;-53
2023/07/02 09:07:03;;;;;;;11.85;5.05;;;;;;;20.88;46.73;101014.88;5003527;28;20044;-55
2023/07/02 09:09:29;;;;;;;10.80;5.30;;;;;;;20.87;46.16;101016.75;4998843;28;20030;-55
2023/07/02 09:11:54;;;;;;;11.40;5.38;;;;;;;20.86;46.22;101016.91;4997574;28;20080;-55
2023/07/02 09:14:31;;;;;;;11.07;5.53;;;;;;;20.92;48.36;101007.25;5000144;28;20050;-54
2023/07/02 09:17:04;;;;;;;13.77;5.82;;;;;;;20.87;48.62;101013.22;4998723;28;20030;-54
2023/07/02 09:19:30;;;;;;;13.63;5.78;;;;;;;20.90;49.29;101007.44;4995124;28;20448;-53
2023/07/02 09:21:59;;;;;;;11.77;5.47;;;;;;;21.13;46.16;101012.78;5001193;28;20092;-53
2023/07/02 09:24:25;;;;;;;11.60;4.78;;;;;;;21.19;44.73;101017.47;5000135;28;20030;-54
2023/07/02 09:27:09;;;;;;;11.10;5.45;;;;;;;21.25;45.13;101016.75;4991412;28;20023;-52
2023/07/02 09:29:34;;;;;;;13.77;6.07;;;;;;;21.48;45.48;101012.31;4995175;28;20023;-54
2023/07/02 09:32:02;;;;;;;10.38;4.68;;;;;;;21.59;46.11;101009.16;4999327;28;20028;-52
2023/07/02 09:34:30;;;;;;;11.18;5.60;;;;;;;21.59;46.06;101010.00;4992735;28;20097;-53
2023/07/02 09:36:56;;;;;;;13.75;5.55;;;;;;;21.69;46.89;101000.78;4997796;28;20056;-51
2023/07/02 09:39:27;;;;;;;13.18;5.55;;;;;;;21.68;46.47;101008.03;4999860;28;20030;-51
2023/07/02 09:41:55;;;;;;;13.05;5.78;;;;;;;21.60;45.96;101006.28;4998013;28;20088;-52
2023/07/02 09:44:20;;;;;;;11.88;5.65;;;;;;;21.67;45.90;101009.06;4999033;28;20061;-52
2023/07/02 09:47:01;;;;;;;11.63;5.38;;;;;;;21.99;48.01;101005.13;4998834;28;20058;-54
2023/07/02 09:49:27;;;;;;;12.10;5.72;;;;;;;22.14;47.07;101010.50;4998501;28;20026;-53
2023/07/02 09:51:53;;;;;;;13.38;5.20;;;;;;;22.27;47.59;101006.28;4994967;28;20088;-54
2023/07/02 09:54:20;;;;;;;11.80;5.40;;;;;;;22.43;46.59;101007.94;5012731;28;20018;-54
2023/07/02 09:56:47;;;;;;;13.88;5.60;;;;;;;22.46;48.17;101010.25;5003565;28;20121;-53
2023/07/02 09:59:13;;;;;;;14.77;5.75;;;;;;;22.50;46.86;101015.09;4998319;28;20068;-53
2023/07/02 10:01:39;;;;;;;12.90;5.60;;;;;;;22.47;47.21;101018.19;4999659;28;20027;-53
2023/07/02 10:04:15;;;;;;;13.52;5.35;;;;;;;22.47;47.85;101018.19;4998468;28;20542;-54
2023/07/02 10:06:52;;;;;;;15.00;5.72;;;;;;;22.44;47.55;101015.03;5000580;28;20141;-53
2023/07/02 10:09:18;;;;;;;14.32;6.10;;;;;;;22.46;46.64;101023.78;4989503;28;20037;-52
2023/07/02 10:11:44;;;;;;;9.80;5.28;;;;;;;22.68;46.36;101025.50;4991894;28;20129;-53
2023/07/02 10:14:09;;;;;;;13.35;5.20;;;;;;;22.82;44.62;101025.63;4994468;28;20471;-54
2023/07/02 10:16:56;;;;;;;15.57;6.10;;;;;;;22.79;46.34;101032.25;4997571;28;20430;-52
2023/07/02 10:19:21;;;;;;;12.95;5.70;;;;;;;22.60;45.46;101031.03;4988369;28;20068;-51
2023/07/02 10:22:04;;;;;;;13.90;6.05;;;;;;;22.69;46.50;101040.69;4999543;28;20546;-54
2023/07/02 10:24:30;;;;;;;10.38;5.43;;;;;;;22.53;45.95;101041.78;4993690;28;20047;-53
2023/07/02 10:26:58;;;;;;;14.38;6.30;;;;;;;22.53;44.06;101041.78;4998310;28;20034;-54
2023/07/02 10:29:25;;;;;;;13.07;6.18;;;;;;;22.59;45.74;101034.75;5000585;28;20045;-55
2023/07/02 10:31:51;;;;;;;11.60;5.43;;;;;;;22.80;46.75;101041.19;4996659;28;20092;-55
2023/07/02 10:34:28;;;;;;;12.82;6.20;;;;;;;22.87;45.16;101034.84;4999695;28;20054;-54
2023/07/02 10:36:54;;;;;;;12.13;6.15;;;;;;;22.68;43.52;101030.06;4998929;28;20023;-54
2023/07/02 10:39:20;;;;;;;13.30;5.57;;;;;;;22.53;44.44;101030.09;4998523;28;20056;-54
2023/07/02 10:41:45;;;;;;;11.98;6.18;;;;;;;22.40;45.52;101032.66;4997353;28;20026;-55
2023/07/02 10:44:11;;;;;;;15.20;5.72;;;;;;;22.49;44.90;101045.06;4997785;28;20027;-52
2023/07/02 10:46:47;;;;;;;14.88;5.90;;;;;;;22.47;44.81;101049.84;4999517;28;20354;-53
2023/07/02 10:49:13;;;;;;;15.55;6.88;;;;;;;22.34;44.44;101050.53;4994372;28;20355;-55
2023/07/02 10:51:38;;;;;;;11.48;6.47;;;;;;;22.27;44.46;101052.28;5000087;28;20054;-55
2023/07/02 10:54:07;;;;;;;13.52;6.07;;;;;;;22.21;45.05;101055.75;4995394;28;20125;-56
2023/07/02 10:56:32;;;;;;;16.13;6.63;;;;;;;22.37;46.28;101041.19;5000593;28;20034;-55
2023/07/02 10:58:58;;;;;;;15.80;7.18;;;;;;;22.65;45.64;101044.84;5003902;28;20516;-55
2023/07/02 11:01:24;;;;;;;18.25;7.57;;;;;;;22.81;43.86;101043.72;5002954;28;20488;-53
2023/07/02 11:04:00;;;;;;;15.25;7.38;;;;;;;23.16;46.64;101043.84;4999075;28;20040;-52
2023/07/02 11:06:30;;;;;;;15.52;7.22;;;;;;;23.44;44.50;101040.31;4994866;28;20101;-53
2023/07/02 11:08:56;;;;;;;17.20;7.15;;;;;;;23.62;44.50;101047.97;4997411;28;20702;-55